Aviation Digital Data Service (ADDS)

Output produced by METARs form (0936 UTC 17 April 2014)
found at http://aviationweather.gov/adds/metars/
 
KBTV 170520Z 1706/1806 VRB05KT P6SM SKC 
     FM171400 14006KT P6SM SCT200 
     FM171800 17012G20KT P6SM SCT200